Time;durP1;ratioP1;P1;durP2;ratioP2;P2;SDS_P1;SDS_P2;PMS_P1;PMS_P2;Temp;Humidity;BMP_temperature;BMP_pressure;BME280_temperature;BME280_humidity;BME280_pressure;Samples;Min_cycle;Max_cycle;Signal;HPM_P1;HPM_P2
2022/01/17 00:00:21;;;;;;;20.77;10.65;;;3.10;99.90;;;;;;5012988;28;20033;-72
2022/01/17 00:02:50;;;;;;;19.85;10.90;;;3.10;99.90;;;;;;5013938;28;20026;-72
2022/01/17 00:05:16;;;;;;;18.55;9.85;;;3.10;99.90;;;;;;5017963;28;20477;-70
2022/01/17 00:07:42;;;;;;;20.38;10.70;;;3.00;99.90;;;;;;5010429;28;20017;-72
2022/01/17 00:10:09;;;;;;;20.17;10.23;;;3.00;99.90;;;;;;5009837;28;20071;-73
2022/01/17 00:12:38;;;;;;;17.35;8.95;;;3.00;99.90;;;;;;5014429;28;20390;-72
2022/01/17 00:15:17;;;;;;;20.15;10.40;;;3.00;99.90;;;;;;5004969;28;20028;-72
2022/01/17 00:17:47;;;;;;;20.13;10.02;;;3.00;99.90;;;;;;5025533;28;20030;-72
2022/01/17 00:20:17;;;;;;;17.73;10.20;;;3.00;99.90;;;;;;5000514;28;20033;-72
2022/01/17 00:22:44;;;;;;;17.35;9.77;;;3.00;99.90;;;;;;5010236;28;20022;-72
2022/01/17 00:25:10;;;;;;;19.15;9.73;;;3.00;99.90;;;;;;5008304;28;20018;-73
2022/01/17 00:27:35;;;;;;;18.00;9.52;;;3.00;99.90;;;;;;5007452;28;20370;-72
2022/01/17 00:30:03;;;;;;;18.77;9.05;;;2.90;99.90;;;;;;5008366;28;20030;-71
2022/01/17 00:32:30;;;;;;;17.88;9.15;;;2.90;99.90;;;;;;5002411;28;20045;-70
2022/01/17 00:34:56;;;;;;;19.08;9.68;;;2.90;99.90;;;;;;5004772;28;20549;-71
2022/01/17 00:37:22;;;;;;;23.30;9.68;;;2.90;99.90;;;;;;5004709;28;20033;-71
2022/01/17 00:39:48;;;;;;;18.10;9.93;;;2.90;99.90;;;;;;5005062;28;20386;-71
2022/01/17 00:42:14;;;;;;;16.38;8.32;;;2.90;99.90;;;;;;5004862;28;20482;-72
2022/01/17 00:44:39;;;;;;;16.40;8.45;;;2.90;99.90;;;;;;5010526;28;20033;-71
2022/01/17 00:47:05;;;;;;;15.00;7.78;;;2.90;99.90;;;;;;5007651;28;20026;-69
2022/01/17 00:49:31;;;;;;;17.73;8.38;;;2.90;99.90;;;;;;5014256;28;20109;-69
2022/01/17 00:51:56;;;;;;;17.15;9.43;;;2.90;99.90;;;;;;5006118;28;20385;-70
2022/01/17 00:54:23;;;;;;;19.88;9.43;;;2.90;99.90;;;;;;5007309;28;20034;-70
2022/01/17 00:56:49;;;;;;;15.25;8.93;;;2.90;99.90;;;;;;5016390;28;20026;-71
2022/01/17 00:59:15;;;;;;;15.23;7.70;;;2.80;99.90;;;;;;5003889;28;20147;-71
2022/01/17 01:01:40;;;;;;;18.20;9.35;;;2.80;99.90;;;;;;5009916;28;20446;-71
2022/01/17 01:04:06;;;;;;;17.33;8.30;;;2.80;99.90;;;;;;5007134;28;20038;-71
2022/01/17 01:06:32;;;;;;;16.42;8.18;;;2.80;99.90;;;;;;5020983;28;20036;-71
2022/01/17 01:08:58;;;;;;;14.32;7.28;;;2.80;99.90;;;;;;5017704;28;20018;-70
2022/01/17 01:11:24;;;;;;;14.55;7.63;;;2.80;99.90;;;;;;5017700;28;20117;-70
2022/01/17 01:13:50;;;;;;;13.60;6.95;;;2.80;99.90;;;;;;5013721;28;20022;-72
2022/01/17 01:29:54;;;;;;;13.00;6.55;;;2.90;99.90;;;;;;4988827;28;20034;-70
2022/01/17 01:32:24;;;;;;;13.63;7.38;;;2.90;99.90;;;;;;5015573;28;20413;-72
2022/01/17 01:34:53;;;;;;;13.50;6.88;;;2.90;99.90;;;;;;5014450;28;20121;-72
2022/01/17 01:37:19;;;;;;;12.90;6.82;;;2.90;99.90;;;;;;5015431;28;20076;-72
2022/01/17 01:39:47;;;;;;;13.07;6.97;;;3.00;99.90;;;;;;5016604;28;20026;-72
2022/01/17 01:42:18;;;;;;;13.15;6.75;;;2.90;99.90;;;;;;5009160;28;20117;-72
2022/01/17 01:44:44;;;;;;;13.18;6.45;;;3.00;99.90;;;;;;5015988;28;20478;-72
2022/01/17 01:47:11;;;;;;;12.85;7.38;;;3.00;99.90;;;;;;5013785;28;20065;-72
2022/01/17 01:49:37;;;;;;;12.50;6.78;;;3.00;99.90;;;;;;5012002;28;20026;-71
2022/01/17 01:52:03;;;;;;;12.90;6.32;;;3.00;99.90;;;;;;5002213;28;20038;-72
2022/01/17 01:54:29;;;;;;;11.52;6.03;;;3.00;99.90;;;;;;5004947;28;20084;-72
2022/01/17 01:56:54;;;;;;;13.43;6.78;;;3.00;99.90;;;;;;5006252;28;20707;-71
2022/01/17 01:59:22;;;;;;;15.68;7.68;;;3.00;99.90;;;;;;5012915;28;20037;-72
2022/01/17 02:01:48;;;;;;;13.48;7.22;;;3.10;99.90;;;;;;5011383;28;20046;-71
2022/01/17 02:04:15;;;;;;;15.13;7.32;;;3.10;99.90;;;;;;5014255;28;20092;-70
2022/01/17 02:06:42;;;;;;;17.00;8.20;;;3.10;99.90;;;;;;5007727;28;20172;-70
2022/01/17 02:09:08;;;;;;;18.05;7.90;;;3.00;99.90;;;;;;5011481;28;20028;-70
2022/01/17 02:11:35;;;;;;;14.73;7.78;;;3.00;99.90;;;;;;5011556;28;20083;-71
2022/01/17 02:14:02;;;;;;;14.80;7.55;;;3.00;99.90;;;;;;5016840;28;20048;-70
2022/01/17 02:16:27;;;;;;;16.27;8.07;;;3.00;99.90;;;;;;5017834;28;20041;-71
2022/01/17 02:18:54;;;;;;;14.52;7.20;;;3.00;99.90;;;;;;5009108;28;20117;-71
2022/01/17 02:21:32;;;;;;;16.50;8.85;;;3.00;99.90;;;;;;5020980;28;20028;-70
2022/01/17 02:23:59;;;;;;;15.15;7.07;;;3.00;99.90;;;;;;5016394;28;20025;-70
2022/01/17 02:26:25;;;;;;;14.48;7.07;;;3.00;99.90;;;;;;5011959;28;20033;-71
2022/01/17 02:28:56;;;;;;;15.63;7.68;;;3.00;99.90;;;;;;5010526;28;20037;-71
2022/01/17 02:31:23;;;;;;;14.48;7.65;;;2.90;99.90;;;;;;5006362;28;20026;-71
2022/01/17 02:33:51;;;;;;;13.70;7.28;;;3.00;99.90;;;;;;5010548;28;20026;-71
2022/01/17 02:36:16;;;;;;;14.90;7.18;;;2.90;99.90;;;;;;5009003;28;20481;-71
2022/01/17 02:38:43;;;;;;;13.40;7.50;;;2.90;99.90;;;;;;5006759;28;20032;-71
2022/01/17 02:41:09;;;;;;;12.80;6.10;;;2.90;99.90;;;;;;5013542;28;20018;-71
2022/01/17 02:43:36;;;;;;;16.08;7.13;;;2.90;99.90;;;;;;5015410;28;20026;-71
2022/01/17 02:48:32;;;;;;;12.77;6.63;;;2.90;99.90;;;;;;5011864;28;20034;-71
2022/01/17 02:50:59;;;;;;;12.35;7.28;;;2.90;99.90;;;;;;5007673;28;20041;-71
2022/01/17 02:53:26;;;;;;;12.88;6.93;;;2.90;99.90;;;;;;5010337;28;20029;-72
2022/01/17 02:55:55;;;;;;;14.23;6.63;;;2.90;99.90;;;;;;5017923;28;20065;-71
2022/01/17 02:58:22;;;;;;;13.40;7.15;;;2.90;99.90;;;;;;5013172;28;20064;-71
2022/01/17 03:00:49;;;;;;;15.65;7.38;;;2.90;99.90;;;;;;5009363;28;20558;-71
2022/01/17 03:03:16;;;;;;;14.65;7.40;;;2.90;99.90;;;;;;5010050;28;20030;-71
2022/01/17 03:05:42;;;;;;;18.00;7.53;;;2.90;99.90;;;;;;5004261;28;20025;-71
2022/01/17 03:08:09;;;;;;;16.33;7.13;;;2.90;99.90;;;;;;5012080;28;20029;-72
2022/01/17 03:13:02;;;;;;;13.88;5.90;;;2.90;99.90;;;;;;5012264;28;20116;-72
2022/01/17 03:15:28;;;;;;;14.90;6.30;;;2.90;99.90;;;;;;5009248;28;20041;-72
2022/01/17 03:17:55;;;;;;;12.13;6.18;;;2.90;99.90;;;;;;5007675;28;20184;-72
2022/01/17 03:20:21;;;;;;;11.60;6.30;;;2.90;99.90;;;;;;5009609;28;20033;-72
2022/01/17 03:22:47;;;;;;;12.70;5.28;;;2.90;99.90;;;;;;5010407;28;20050;-73
2022/01/17 03:25:12;;;;;;;13.95;6.65;;;2.90;99.90;;;;;;5019805;28;20067;-74
2022/01/17 03:27:38;;;;;;;12.38;6.53;;;3.00;99.90;;;;;;5014635;28;20037;-72
2022/01/17 03:30:05;;;;;;;12.85;6.13;;;2.90;99.90;;;;;;5019314;28;20477;-72
2022/01/17 03:32:31;;;;;;;11.77;6.57;;;2.90;99.90;;;;;;5001221;28;20270;-72
2022/01/17 03:34:57;;;;;;;11.32;6.82;;;3.00;99.90;;;;;;5008675;28;20422;-72
2022/01/17 03:37:23;;;;;;;11.13;6.03;;;2.90;99.90;;;;;;5008666;28;20032;-72
2022/01/17 03:39:49;;;;;;;13.00;6.10;;;3.00;99.90;;;;;;5015824;28;20072;-72
2022/01/17 03:42:18;;;;;;;12.48;6.25;;;3.00;99.90;;;;;;5007305;28;20018;-72
2022/01/17 03:44:45;;;;;;;11.10;6.30;;;3.00;99.90;;;;;;5009950;28;20014;-72
2022/01/17 03:47:11;;;;;;;13.38;6.20;;;3.00;99.90;;;;;;5008344;28;20046;-72
2022/01/17 03:49:37;;;;;;;13.60;6.57;;;3.00;99.90;;;;;;5013203;28;20034;-72
2022/01/17 03:52:04;;;;;;;15.07;6.57;;;3.00;99.90;;;;;;5008331;28;20021;-73
2022/01/17 03:54:31;;;;;;;12.90;6.43;;;3.00;99.90;;;;;;5011651;28;20029;-73
2022/01/17 03:57:00;;;;;;;13.00;6.28;;;3.00;99.90;;;;;;5006133;28;20114;-71
2022/01/17 03:59:26;;;;;;;10.68;6.25;;;2.90;99.90;;;;;;5012340;28;20115;-71
2022/01/17 04:01:52;;;;;;;12.32;6.45;;;2.90;99.90;;;;;;5006077;28;20105;-72
2022/01/17 04:04:17;;;;;;;14.02;7.00;;;2.90;99.90;;;;;;5006402;28;20079;-72
2022/01/17 04:06:43;;;;;;;12.55;5.80;;;3.00;99.90;;;;;;5008103;28;20030;-72
2022/01/17 04:09:10;;;;;;;12.40;6.40;;;3.00;99.90;;;;;;5003855;28;20109;-72
2022/01/17 04:11:36;;;;;;;13.38;6.43;;;3.00;99.90;;;;;;5027113;28;20029;-72
2022/01/17 04:14:03;;;;;;;13.35;6.70;;;3.00;99.90;;;;;;5010919;28;20044;-72
2022/01/17 04:16:29;;;;;;;12.82;6.03;;;3.00;99.90;;;;;;5009810;28;20140;-73
2022/01/17 04:18:55;;;;;;;11.20;5.75;;;3.10;99.90;;;;;;5008402;28;20100;-72
2022/01/17 04:21:22;;;;;;;13.15;6.75;;;3.00;99.90;;;;;;5007366;28;20033;-72
2022/01/17 04:23:48;;;;;;;12.77;6.63;;;3.10;99.90;;;;;;5017612;28;20486;-72
2022/01/17 04:26:14;;;;;;;10.80;5.80;;;3.10;99.90;;;;;;5020834;28;20301;-72
2022/01/17 04:28:40;;;;;;;13.48;6.30;;;3.10;99.90;;;;;;5010669;28;20783;-71
2022/01/17 04:31:06;;;;;;;11.48;6.43;;;3.10;99.90;;;;;;5008450;28;20037;-72
2022/01/17 04:33:33;;;;;;;11.93;5.82;;;3.10;99.90;;;;;;5014155;28;20037;-72
2022/01/17 04:36:00;;;;;;;12.35;6.82;;;3.20;99.90;;;;;;5008359;28;20509;-72
2022/01/17 04:38:26;;;;;;;14.48;6.38;;;3.10;99.90;;;;;;5007422;28;20100;-72
2022/01/17 04:41:01;;;;;;;10.35;6.55;;;3.20;99.90;;;;;;5010933;28;20029;-73
2022/01/17 04:43:55;;;;;;;12.40;6.20;;;3.20;99.90;;;;;;5017453;28;20032;-72
2022/01/17 04:46:18;;;;;;;14.55;6.53;;;3.20;99.90;;;;;;5013138;28;20030;-72
2022/01/17 04:48:44;;;;;;;10.30;5.43;;;3.20;99.90;;;;;;5006424;28;20049;-72
2022/01/17 04:51:10;;;;;;;17.38;7.22;;;3.20;99.90;;;;;;5009313;28;20446;-72
2022/01/17 04:53:35;;;;;;;11.55;6.20;;;3.20;99.90;;;;;;5006989;28;20490;-72
2022/01/17 04:56:01;;;;;;;13.88;6.32;;;3.20;99.90;;;;;;5003085;28;20053;-72
2022/01/17 04:58:27;;;;;;;14.23;6.25;;;3.20;99.90;;;;;;5007248;28;20072;-72
2022/01/17 05:00:53;;;;;;;12.18;6.38;;;3.20;99.90;;;;;;5001052;28;20030;-72
2022/01/17 05:03:22;;;;;;;13.10;6.07;;;3.20;99.90;;;;;;5011935;28;20021;-72
2022/01/17 05:05:48;;;;;;;10.75;6.47;;;3.20;99.90;;;;;;5007386;28;20117;-72
2022/01/17 05:08:15;;;;;;;13.70;6.13;;;3.20;99.90;;;;;;5005024;28;20146;-72
2022/01/17 05:10:52;;;;;;;9.52;5.47;;;3.20;99.90;;;;;;5005531;28;20038;-72
2022/01/17 05:13:24;;;;;;;12.75;6.38;;;3.20;99.90;;;;;;5004969;28;20478;-73
2022/01/17 05:16:03;;;;;;;11.27;6.03;;;3.20;99.90;;;;;;5002875;28;20083;-73
2022/01/17 05:20:58;;;;;;;11.20;5.55;;;3.30;99.90;;;;;;5025148;28;20033;-72
2022/01/17 05:23:24;;;;;;;14.75;6.78;;;3.20;99.90;;;;;;5006487;28;20225;-72
2022/01/17 05:25:50;;;;;;;13.77;5.38;;;3.30;99.90;;;;;;5011472;28;20393;-72
2022/01/17 05:28:15;;;;;;;14.45;5.85;;;3.30;99.90;;;;;;5022926;28;20095;-72
2022/01/17 05:30:41;;;;;;;11.35;5.80;;;3.30;99.90;;;;;;5008025;28;20038;-71
2022/01/17 05:33:07;;;;;;;11.25;4.97;;;3.30;99.90;;;;;;5010608;28;20037;-72
2022/01/17 05:35:32;;;;;;;11.77;5.57;;;3.30;99.90;;;;;;5005215;28;20044;-71
2022/01/17 05:37:58;;;;;;;10.70;5.50;;;3.30;99.90;;;;;;5015379;28;20026;-73
2022/01/17 05:40:24;;;;;;;12.73;6.20;;;3.40;99.90;;;;;;5013680;28;20206;-72
2022/01/17 05:42:50;;;;;;;13.55;5.63;;;3.30;99.90;;;;;;5013571;28;20112;-71
2022/01/17 05:45:16;;;;;;;8.55;5.00;;;3.40;99.90;;;;;;5011233;28;20014;-65
2022/01/17 05:47:42;;;;;;;9.85;5.03;;;4.00;99.90;;;;;;5001841;28;20022;-66
2022/01/17 05:50:08;;;;;;;10.32;5.53;;;4.30;99.90;;;;;;5004169;28;20120;-66
2022/01/17 05:52:35;;;;;;;10.48;5.53;;;4.50;99.90;;;;;;5010321;28;20042;-65
2022/01/17 05:55:02;;;;;;;10.38;5.55;;;4.80;99.90;;;;;;5007797;28;20034;-72
2022/01/17 05:57:28;;;;;;;8.65;5.00;;;5.00;99.90;;;;;;5019037;28;20038;-71
2022/01/17 05:59:54;;;;;;;9.40;4.93;;;4.90;99.90;;;;;;5014314;28;20121;-72
2022/01/17 06:02:19;;;;;;;9.05;4.65;;;4.70;99.90;;;;;;5014546;28;20029;-71
2022/01/17 06:04:45;;;;;;;10.07;4.90;;;4.60;99.90;;;;;;5014601;28;20027;-72
2022/01/17 06:07:11;;;;;;;7.82;5.07;;;4.40;99.90;;;;;;5013059;28;20026;-72
2022/01/17 06:09:37;;;;;;;10.98;5.40;;;4.30;99.90;;;;;;5014399;28;20037;-73
2022/01/17 06:12:03;;;;;;;11.95;5.35;;;4.20;99.90;;;;;;5013815;28;20025;-72
2022/01/17 06:14:30;;;;;;;9.77;4.63;;;4.10;99.90;;;;;;5016563;28;20030;-72
2022/01/17 06:16:56;;;;;;;9.40;5.30;;;4.00;99.90;;;;;;5021205;28;20784;-71
2022/01/17 06:19:21;;;;;;;7.70;4.53;;;3.90;99.90;;;;;;5018342;28;20029;-72
2022/01/17 06:21:47;;;;;;;10.05;5.63;;;3.90;99.90;;;;;;5018702;28;20050;-71
2022/01/17 06:24:13;;;;;;;7.45;4.55;;;3.80;99.90;;;;;;5005280;28;20074;-70
2022/01/17 06:26:40;;;;;;;10.05;5.47;;;3.80;99.90;;;;;;5013687;28;20030;-71
2022/01/17 06:29:08;;;;;;;9.85;4.97;;;3.70;99.90;;;;;;5013311;28;20073;-72
2022/01/17 06:31:35;;;;;;;9.52;5.10;;;3.80;99.90;;;;;;5014848;28;20083;-72
2022/01/17 06:34:01;;;;;;;10.65;5.15;;;3.70;99.90;;;;;;5021840;28;20030;-71
2022/01/17 06:36:27;;;;;;;10.45;5.20;;;3.70;99.90;;;;;;5024966;28;20076;-71
2022/01/17 06:38:53;;;;;;;10.60;4.95;;;3.70;99.90;;;;;;5016445;28;20030;-71
2022/01/17 06:41:19;;;;;;;12.02;5.72;;;3.70;99.90;;;;;;5010997;28;20025;-73
2022/01/17 06:43:46;;;;;;;11.18;5.70;;;3.70;99.90;;;;;;5012577;28;20113;-70
2022/01/17 06:46:12;;;;;;;9.20;4.90;;;3.60;99.90;;;;;;5019204;28;20045;-71
2022/01/17 06:48:38;;;;;;;11.90;6.03;;;3.60;99.90;;;;;;5016496;28;20025;-72
2022/01/17 06:51:04;;;;;;;11.40;5.60;;;3.60;99.90;;;;;;5005206;28;20088;-72
2022/01/17 06:53:31;;;;;;;10.52;5.72;;;3.60;99.90;;;;;;5013686;28;20030;-72
2022/01/17 06:55:57;;;;;;;11.43;5.43;;;3.60;99.90;;;;;;5013549;28;20069;-72
2022/01/17 06:58:23;;;;;;;10.55;5.25;;;3.60;99.90;;;;;;5013594;28;20026;-75
2022/01/17 07:00:50;;;;;;;11.30;5.50;;;3.60;99.90;;;;;;5011109;28;20394;-71
2022/01/17 07:03:15;;;;;;;10.15;5.05;;;3.60;99.90;;;;;;5010183;28;20383;-72
2022/01/17 07:05:41;;;;;;;9.45;5.55;;;3.60;99.90;;;;;;5011947;28;20063;-72
2022/01/17 07:08:07;;;;;;;8.32;4.82;;;3.60;99.90;;;;;;5014110;28;20021;-72
2022/01/17 07:10:33;;;;;;;9.43;5.07;;;3.60;99.90;;;;;;5016810;28;20117;-71
2022/01/17 07:12:59;;;;;;;14.18;5.93;;;3.60;99.90;;;;;;5012164;28;20030;-71
2022/01/17 07:15:25;;;;;;;10.82;5.30;;;3.60;99.90;;;;;;5011461;28;20508;-70
2022/01/17 07:17:51;;;;;;;12.98;6.20;;;3.60;99.90;;;;;;5014032;28;20397;-70
2022/01/17 07:20:17;;;;;;;9.00;5.15;;;3.60;99.90;;;;;;5005185;28;20026;-70
2022/01/17 07:22:43;;;;;;;12.68;5.28;;;3.60;99.90;;;;;;5013927;28;20466;-70
2022/01/17 07:25:09;;;;;;;14.02;5.35;;;3.60;99.90;;;;;;5016490;28;20033;-70
2022/01/17 07:27:35;;;;;;;10.05;5.22;;;3.60;99.90;;;;;;5014449;28;20033;-71
2022/01/17 07:30:05;;;;;;;15.20;5.60;;;3.60;99.90;;;;;;5018517;28;20026;-70
2022/01/17 07:32:31;;;;;;;10.50;4.90;;;3.60;99.90;;;;;;5009979;28;20030;-71
2022/01/17 07:34:57;;;;;;;11.93;5.28;;;3.60;99.90;;;;;;5016682;28;20474;-70
2022/01/17 07:37:22;;;;;;;10.30;4.88;;;3.60;99.90;;;;;;5013449;28;20030;-72
2022/01/17 07:39:48;;;;;;;10.00;5.22;;;3.60;99.90;;;;;;5014210;28;20057;-71
2022/01/17 07:42:14;;;;;;;9.52;4.85;;;3.60;99.90;;;;;;5006064;28;20050;-71
2022/01/17 07:44:42;;;;;;;11.35;5.05;;;3.70;99.90;;;;;;5011451;28;20076;-70
2022/01/17 07:47:16;;;;;;;11.23;5.55;;;3.60;99.90;;;;;;5011072;28;20371;-71
2022/01/17 07:49:42;;;;;;;10.13;5.10;;;3.60;99.90;;;;;;5013194;28;20034;-72
2022/01/17 07:52:08;;;;;;;11.20;5.43;;;3.60;99.90;;;;;;5012333;28;20121;-70
2022/01/17 07:54:37;;;;;;;10.63;5.38;;;3.60;99.90;;;;;;5012319;28;20104;-71
2022/01/17 07:57:03;;;;;;;10.88;5.60;;;3.60;99.90;;;;;;5012626;28;20046;-71
2022/01/17 07:59:29;;;;;;;10.90;5.78;;;3.60;99.90;;;;;;5012716;28;20068;-71
2022/01/17 08:01:55;;;;;;;10.55;5.22;;;3.70;99.90;;;;;;5012454;28;20018;-71
2022/01/17 08:04:21;;;;;;;12.27;5.93;;;3.60;99.90;;;;;;5006933;28;20026;-71
2022/01/17 08:06:49;;;;;;;9.75;5.32;;;3.70;99.90;;;;;;5016692;28;20072;-71
2022/01/17 08:09:19;;;;;;;12.45;5.43;;;3.60;99.90;;;;;;5032057;28;20045;-71
2022/01/17 08:11:45;;;;;;;9.85;5.85;;;3.70;99.90;;;;;;5030731;28;20363;-71
2022/01/17 08:14:11;;;;;;;8.90;5.22;;;3.70;99.90;;;;;;5016328;28;20394;-71
2022/01/17 08:16:37;;;;;;;10.23;5.55;;;3.70;99.90;;;;;;5005663;28;20048;-71
2022/01/17 08:19:03;;;;;;;9.90;5.50;;;3.70;99.90;;;;;;5005689;28;20022;-70
2022/01/17 08:21:29;;;;;;;9.80;5.43;;;3.70;99.90;;;;;;5012085;28;20494;-71
2022/01/17 08:23:54;;;;;;;9.00;5.22;;;3.80;99.90;;;;;;5010545;28;20052;-71
2022/01/17 08:26:21;;;;;;;13.23;5.93;;;3.80;99.90;;;;;;5011904;28;20037;-71
2022/01/17 08:28:47;;;;;;;10.45;5.28;;;3.80;99.90;;;;;;4993063;28;20037;-71
2022/01/17 08:31:14;;;;;;;12.27;5.53;;;3.80;99.90;;;;;;4992457;28;20034;-70
2022/01/17 08:33:40;;;;;;;11.57;5.97;;;3.80;99.90;;;;;;4991115;28;20599;-69
2022/01/17 08:36:07;;;;;;;11.02;5.25;;;3.80;99.90;;;;;;4997867;28;20022;-71
2022/01/17 08:38:34;;;;;;;10.50;5.28;;;3.80;99.90;;;;;;5005060;28;20489;-71
2022/01/17 08:41:00;;;;;;;11.45;5.60;;;3.90;99.90;;;;;;5007822;28;20054;-70
2022/01/17 08:43:27;;;;;;;10.02;5.20;;;3.80;99.90;;;;;;5012067;28;20071;-70
2022/01/17 08:45:53;;;;;;;10.02;5.75;;;3.90;99.90;;;;;;5010742;28;20165;-70
2022/01/17 08:48:19;;;;;;;10.00;5.30;;;3.90;99.90;;;;;;5010712;28;20556;-71
2022/01/17 08:50:47;;;;;;;10.38;5.13;;;3.80;99.90;;;;;;5010802;28;20036;-70
2022/01/17 08:53:14;;;;;;;10.48;4.78;;;3.80;99.90;;;;;;5012006;28;20480;-70
2022/01/17 08:55:42;;;;;;;9.95;5.50;;;3.80;99.90;;;;;;5011840;28;20033;-71
2022/01/17 08:58:09;;;;;;;9.38;5.15;;;3.80;99.90;;;;;;5016726;28;20410;-72
2022/01/17 09:00:36;;;;;;;9.43;5.43;;;3.80;99.90;;;;;;5011246;28;20026;-72
2022/01/17 09:03:02;;;;;;;12.82;5.55;;;3.80;99.90;;;;;;5012243;28;20053;-72
2022/01/17 09:05:29;;;;;;;11.85;5.53;;;3.80;99.90;;;;;;5011066;28;20022;-72
2022/01/17 09:07:54;;;;;;;12.52;5.65;;;3.80;99.90;;;;;;5019796;28;20568;-74
2022/01/17 09:10:20;;;;;;;9.95;4.90;;;3.90;99.90;;;;;;5011926;28;20034;-73
2022/01/17 09:12:46;;;;;;;10.57;5.68;;;3.90;99.90;;;;;;5010650;28;20089;-73
2022/01/17 09:15:13;;;;;;;11.27;5.25;;;3.90;99.90;;;;;;5012084;28;20030;-71
2022/01/17 09:17:39;;;;;;;9.25;5.70;;;4.00;99.90;;;;;;5012029;28;20540;-73
2022/01/17 09:20:06;;;;;;;10.35;5.40;;;4.00;99.90;;;;;;5006778;28;20026;-72
2022/01/17 09:22:32;;;;;;;9.00;5.15;;;4.00;99.90;;;;;;5003242;28;20098;-72
2022/01/17 09:24:58;;;;;;;11.45;5.15;;;4.00;99.90;;;;;;5011466;28;20022;-72
2022/01/17 09:27:25;;;;;;;9.38;5.40;;;4.10;99.90;;;;;;5018016;28;20368;-73
2022/01/17 09:29:50;;;;;;;12.02;5.68;;;4.10;99.90;;;;;;5018504;28;20029;-73
2022/01/17 09:32:16;;;;;;;10.05;5.07;;;4.20;99.90;;;;;;5016994;28;20040;-73
2022/01/17 09:34:43;;;;;;;7.57;4.55;;;4.30;99.90;;;;;;5019700;28;20092;-71
2022/01/17 09:37:09;;;;;;;10.02;5.38;;;4.30;99.90;;;;;;5013172;28;20029;-73
2022/01/17 09:39:37;;;;;;;9.50;4.82;;;4.40;99.90;;;;;;5013338;28;20490;-73
2022/01/17 09:42:06;;;;;;;6.13;4.13;;;4.40;99.90;;;;;;5010792;28;20486;-73
2022/01/17 09:44:36;;;;;;;9.52;4.63;;;4.50;99.90;;;;;;5014326;28;20017;-73
2022/01/17 09:47:11;;;;;;;6.82;3.90;;;4.50;99.90;;;;;;5021351;28;20544;-73
2022/01/17 09:49:42;;;;;;;7.28;4.30;;;4.50;99.90;;;;;;5018664;28;20105;-71
2022/01/17 09:54:59;;;;;;;7.78;4.25;;;4.60;99.90;;;;;;5019401;28;20029;-73
2022/01/17 09:57:27;;;;;;;7.30;4.15;;;4.70;99.90;;;;;;5009896;28;20504;-72
2022/01/17 09:59:53;;;;;;;7.18;4.22;;;4.80;99.90;;;;;;5021680;28;20033;-71
2022/01/17 10:02:19;;;;;;;6.40;3.50;;;4.80;99.90;;;;;;5034556;28;20036;-72
2022/01/17 10:04:45;;;;;;;8.77;4.13;;;4.90;99.90;;;;;;5034409;28;20018;-73
2022/01/17 10:07:11;;;;;;;7.22;3.45;;;5.00;99.90;;;;;;5019782;28;20541;-73
2022/01/17 10:09:39;;;;;;;6.22;3.30;;;5.00;99.90;;;;;;5012115;28;20030;-73
2022/01/17 10:12:14;;;;;;;7.78;3.90;;;5.10;99.90;;;;;;5010002;28;20026;-72
2022/01/17 10:14:59;;;;;;;7.25;3.88;;;5.10;99.90;;;;;;5013411;28;20445;-70
2022/01/17 10:17:46;;;;;;;6.10;3.38;;;5.10;99.90;;;;;;5013181;28;20088;-71
2022/01/17 10:20:16;;;;;;;6.60;3.47;;;5.20;99.90;;;;;;5013699;28;20030;-71
2022/01/17 10:22:55;;;;;;;5.30;2.83;;;5.20;99.90;;;;;;5013708;28;20036;-70
2022/01/17 10:28:09;;;;;;;8.05;3.13;;;5.30;99.90;;;;;;5011236;28;20081;-70
2022/01/17 10:36:17;;;;;;;5.18;2.92;;;5.30;99.90;;;;;;5013800;28;20052;-74
2022/01/17 10:38:43;;;;;;;5.07;2.92;;;5.40;99.90;;;;;;5008622;28;20026;-71
2022/01/17 10:41:09;;;;;;;7.47;4.28;;;5.40;99.90;;;;;;5005240;28;20037;-70
2022/01/17 10:43:39;;;;;;;4.85;3.13;;;5.40;99.90;;;;;;5016443;28;20053;-73
2022/01/17 10:46:13;;;;;;;5.00;3.05;;;5.50;99.90;;;;;;5017269;28;20014;-72
2022/01/17 10:48:44;;;;;;;8.15;3.20;;;5.50;99.90;;;;;;5011499;28;20046;-72
2022/01/17 10:51:11;;;;;;;5.60;2.38;;;5.60;99.90;;;;;;5014601;28;20100;-72
2022/01/17 10:53:40;;;;;;;7.05;2.90;;;5.50;99.90;;;;;;5021608;28;20034;-71
2022/01/17 10:56:08;;;;;;;5.47;2.50;;;5.50;99.90;;;;;;5022082;28;20037;-73
2022/01/17 10:58:37;;;;;;;5.85;2.65;;;5.50;99.90;;;;;;5009358;28;20029;-72
2022/01/17 11:01:10;;;;;;;7.35;3.30;;;5.50;99.90;;;;;;5012983;28;20088;-73
2022/01/17 11:03:37;;;;;;;6.60;3.47;;;5.50;99.90;;;;;;5013096;28;20022;-72
2022/01/17 11:06:06;;;;;;;4.03;2.35;;;5.50;99.90;;;;;;5013279;28;20072;-73
2022/01/17 11:08:34;;;;;;;6.13;3.08;;;5.50;99.90;;;;;;5008502;28;20026;-72
2022/01/17 11:11:05;;;;;;;5.32;2.90;;;5.50;99.90;;;;;;5015731;28;20093;-71
2022/01/17 11:13:38;;;;;;;6.65;2.80;;;5.40;99.90;;;;;;5014551;28;20486;-71
2022/01/17 11:16:11;;;;;;;5.32;3.25;;;5.40;99.90;;;;;;5011611;28;20486;-72
2022/01/17 11:18:41;;;;;;;6.85;3.60;;;5.40;99.90;;;;;;5014804;28;20088;-72
2022/01/17 11:21:14;;;;;;;5.65;3.55;;;5.40;99.90;;;;;;5013209;28;20398;-72
2022/01/17 11:23:43;;;;;;;4.00;2.67;;;5.50;99.90;;;;;;5020310;28;20120;-73
2022/01/17 11:26:10;;;;;;;5.45;3.17;;;5.60;99.90;;;;;;5020978;28;20072;-72
2022/01/17 11:28:38;;;;;;;4.75;2.80;;;5.70;99.90;;;;;;5010570;28;20376;-72
2022/01/17 11:31:08;;;;;;;6.25;3.40;;;5.60;99.90;;;;;;5005416;28;20038;-76
2022/01/17 11:33:35;;;;;;;5.68;2.50;;;5.60;99.90;;;;;;5012411;28;20478;-75
2022/01/17 11:36:01;;;;;;;6.20;3.13;;;5.70;99.90;;;;;;5011993;28;20029;-75
2022/01/17 11:38:31;;;;;;;4.35;2.47;;;5.80;99.90;;;;;;5012946;28;20026;-77
2022/01/17 11:40:59;;;;;;;5.60;2.65;;;5.70;99.90;;;;;;5011739;28;20532;-75
2022/01/17 11:43:35;;;;;;;3.97;2.47;;;5.70;99.90;;;;;;5006898;28;20026;-76
2022/01/17 11:46:19;;;;;;;4.88;2.53;;;5.70;99.90;;;;;;5011926;28;20033;-75
2022/01/17 11:48:56;;;;;;;3.50;2.20;;;5.80;99.90;;;;;;5018124;28;20018;-75
2022/01/17 11:51:21;;;;;;;2.78;1.65;;;5.80;99.90;;;;;;5014347;28;20084;-76
2022/01/17 11:53:56;;;;;;;3.38;2.22;;;5.80;99.90;;;;;;5006714;28;20030;-75
2022/01/17 11:56:38;;;;;;;3.70;1.98;;;5.90;99.90;;;;;;5017450;28;20069;-74
2022/01/17 11:59:27;;;;;;;2.80;1.30;;;5.90;99.90;;;;;;5006931;28;20434;-75
2022/01/17 12:02:28;;;;;;;2.90;1.90;;;5.90;99.90;;;;;;5010861;28;20394;-76
2022/01/17 12:05:06;;;;;;;2.15;1.27;;;5.90;99.90;;;;;;4990513;28;20088;-75
2022/01/17 12:07:51;;;;;;;4.85;2.40;;;5.90;99.90;;;;;;5015491;28;20097;-75
2022/01/17 12:10:22;;;;;;;4.45;1.90;;;6.00;99.90;;;;;;5008212;28;20037;-75
2022/01/17 12:16:17;;;;;;;4.13;1.83;;;6.00;99.90;;;;;;5009024;28;20113;-75
2022/01/17 12:18:48;;;;;;;4.32;1.90;;;6.00;99.90;;;;;;5028688;28;20033;-77
2022/01/17 12:21:24;;;;;;;4.22;2.00;;;6.10;99.90;;;;;;5015669;28;20030;-76
2022/01/17 12:24:25;;;;;;;3.20;1.88;;;6.10;99.90;;;;;;5011277;28;20493;-75
2022/01/17 12:27:03;;;;;;;3.47;1.70;;;6.20;99.90;;;;;;5002002;28;20505;-75
2022/01/17 12:29:50;;;;;;;4.28;2.13;;;6.10;99.90;;;;;;5018196;28;20026;-75
2022/01/17 12:32:25;;;;;;;6.35;2.05;;;6.10;99.90;;;;;;5009003;28;20030;-75
2022/01/17 12:35:05;;;;;;;4.28;1.77;;;6.10;99.90;;;;;;5010532;28;20117;-76
2022/01/17 12:37:39;;;;;;;3.50;1.58;;;6.00;99.90;;;;;;5014792;28;20030;-76
2022/01/17 12:40:22;;;;;;;4.78;1.67;;;6.00;99.90;;;;;;5011572;28;20025;-76
2022/01/17 12:43:00;;;;;;;3.85;2.00;;;5.90;99.90;;;;;;5024302;28;20108;-76
2022/01/17 12:45:28;;;;;;;4.20;1.95;;;6.00;99.90;;;;;;5008135;28;20125;-75
2022/01/17 12:47:55;;;;;;;5.28;1.85;;;6.00;99.90;;;;;;5010954;28;20018;-75
2022/01/17 12:50:23;;;;;;;2.63;1.63;;;6.00;99.90;;;;;;5011558;28;20117;-76
2022/01/17 12:52:53;;;;;;;3.95;1.75;;;6.00;99.90;;;;;;5006038;28;20037;-76
2022/01/17 12:55:20;;;;;;;4.78;1.70;;;6.00;99.90;;;;;;5013933;28;20057;-76
2022/01/17 12:57:47;;;;;;;3.65;1.33;;;6.00;99.90;;;;;;5023112;28;20029;-76
2022/01/17 13:00:18;;;;;;;4.18;2.10;;;6.00;99.90;;;;;;5014113;28;20022;-75
2022/01/17 13:02:46;;;;;;;3.75;1.67;;;6.00;99.90;;;;;;5024666;28;20124;-76
2022/01/17 13:05:12;;;;;;;3.55;1.60;;;6.00;99.90;;;;;;5015393;28;20022;-76
2022/01/17 13:07:42;;;;;;;3.17;1.67;;;5.90;99.90;;;;;;5015335;28;20028;-75
2022/01/17 13:10:11;;;;;;;7.35;2.10;;;5.90;99.90;;;;;;5009476;28;20022;-76
2022/01/17 13:12:39;;;;;;;5.30;2.45;;;5.80;99.90;;;;;;5006883;28;20026;-76
2022/01/17 13:15:06;;;;;;;3.88;1.88;;;5.80;99.90;;;;;;5016773;28;20025;-76
2022/01/17 13:17:33;;;;;;;3.28;1.58;;;5.60;99.90;;;;;;5013399;28;20034;-75
2022/01/17 13:20:00;;;;;;;3.63;2.05;;;5.60;99.90;;;;;;5018037;28;20036;-75
2022/01/17 13:22:26;;;;;;;3.15;1.88;;;5.50;99.90;;;;;;5009102;28;20040;-76
2022/01/17 13:25:03;;;;;;;3.15;1.80;;;5.40;99.90;;;;;;5018264;28;20499;-75
2022/01/17 13:27:32;;;;;;;6.18;2.08;;;5.30;99.90;;;;;;5018879;28;20060;-76
2022/01/17 13:30:05;;;;;;;3.45;1.88;;;5.30;99.90;;;;;;5030043;28;20133;-75